createdAt,value
2022-09-23T00:01:27.295Z,13.60
2022-09-23T00:06:30.639Z,13.70
2022-09-23T00:11:33.882Z,12.20
2022-09-23T00:16:38.828Z,17.37
2022-09-23T00:21:43.320Z,9.40
2022-09-23T00:26:46.558Z,15.53
2022-09-23T00:31:50.258Z,11.20
2022-09-23T00:36:53.358Z,12.43
2022-09-23T00:41:56.937Z,10.53
2022-09-23T00:47:00.289Z,9.23
2022-09-23T00:52:10.919Z,10.70
2022-09-23T00:57:17.419Z,13.57
2022-09-23T01:02:24.792Z,9.97
2022-09-23T01:07:28.158Z,9.40
2022-09-23T01:13:08.139Z,11.70
2022-09-23T01:18:32.999Z,10.13
2022-09-23T01:23:53.741Z,10.90
2022-09-23T01:29:24.599Z,9.90
2022-09-23T01:34:39.141Z,12.87
2022-09-23T01:40:04.082Z,9.67
2022-09-23T01:45:17.859Z,8.27
2022-09-23T01:50:45.058Z,8.90
2022-09-23T01:55:58.479Z,10.20
2022-09-23T02:01:04.953Z,10.17
2022-09-23T02:06:22.760Z,11.50
2022-09-23T02:11:25.686Z,9.80
2022-09-23T02:16:32.431Z,10.70
2022-09-23T02:21:50.924Z,14.13
2022-09-23T02:26:59.859Z,9.93
2022-09-23T02:32:38.060Z,16.37
2022-09-23T02:37:58.897Z,14.17
2022-09-23T02:43:34.442Z,14.80
2022-09-23T02:48:47.198Z,16.57
2022-09-23T02:53:50.439Z,16.97
2022-09-23T02:58:54.940Z,19.87
2022-09-23T03:04:32.378Z,18.70
2022-09-23T03:10:06.343Z,20.00
2022-09-23T03:15:09.688Z,17.07
2022-09-23T03:20:32.822Z,10.53
2022-09-23T03:25:40.004Z,11.60
2022-09-23T03:30:44.538Z,15.53
2022-09-23T03:36:14.518Z,13.37
2022-09-23T03:41:29.600Z,9.77
2022-09-23T03:46:36.058Z,14.00
2022-09-23T03:51:42.780Z,17.60
2022-09-23T03:56:48.504Z,14.37
2022-09-23T04:01:51.752Z,18.30
2022-09-23T04:06:56.837Z,16.67
2022-09-23T04:11:59.976Z,15.73
2022-09-23T04:17:03.128Z,15.77
2022-09-23T04:22:06.546Z,18.03
2022-09-23T04:27:09.592Z,23.03
2022-09-23T04:32:12.705Z,16.90
2022-09-23T04:37:15.863Z,16.07
2022-09-23T04:42:19.071Z,15.37
2022-09-23T04:47:22.207Z,13.80
2022-09-23T04:52:25.428Z,14.17
2022-09-23T04:57:29.864Z,12.77
2022-09-23T05:02:36.251Z,14.30
2022-09-23T05:07:40.534Z,16.30
2022-09-23T05:12:43.495Z,15.63
2022-09-23T05:17:46.787Z,14.73
2022-09-23T05:22:49.957Z,18.43
2022-09-23T05:27:53.566Z,14.80
2022-09-23T05:32:57.123Z,17.67
2022-09-23T05:38:00.677Z,17.30
2022-09-23T05:43:03.717Z,17.70
2022-09-23T05:48:07.303Z,17.17
2022-09-23T05:53:10.546Z,14.93
2022-09-23T05:58:14.106Z,15.70
2022-09-23T06:03:19.552Z,16.13
2022-09-23T06:08:23.909Z,21.17
2022-09-23T06:13:27.441Z,17.97
2022-09-23T06:18:33.029Z,23.33
2022-09-23T06:23:39.897Z,23.87
2022-09-23T06:28:46.244Z,23.93
2022-09-23T06:33:52.017Z,25.77
2022-09-23T06:38:56.770Z,24.70
2022-09-23T06:44:00.035Z,25.53
2022-09-23T06:49:04.469Z,22.10
2022-09-23T06:54:07.892Z,29.33
2022-09-23T06:59:13.676Z,24.43
2022-09-23T07:04:17.078Z,23.47
2022-09-23T07:09:20.486Z,23.93
2022-09-23T07:14:24.997Z,20.13
2022-09-23T07:19:28.182Z,21.20
2022-09-23T07:24:31.535Z,21.43
2022-09-23T07:29:44.214Z,19.77
2022-09-23T07:34:51.777Z,20.63
2022-09-23T07:39:57.487Z,19.93
2022-09-23T07:45:00.771Z,20.20
2022-09-23T07:50:03.976Z,21.57
2022-09-23T07:55:07.967Z,18.80
2022-09-23T08:00:12.593Z,13.10
2022-09-23T08:05:15.846Z,11.27
2022-09-23T08:10:21.426Z,5.90
2022-09-23T08:15:24.757Z,5.53
2022-09-23T08:20:48.256Z,4.17
2022-09-23T08:26:02.739Z,3.50
2022-09-23T08:31:09.482Z,2.73
2022-09-23T08:36:13.257Z,3.73
2022-09-23T08:41:35.020Z,2.00
2022-09-23T08:47:03.913Z,0.77
2022-09-23T08:52:19.817Z,2.07
2022-09-23T08:58:14.072Z,3.00
2022-09-23T09:03:41.583Z,5.00
2022-09-23T09:08:47.710Z,2.83
2022-09-23T09:14:23.928Z,2.53
2022-09-23T09:19:54.116Z,2.50
2022-09-23T09:25:23.086Z,1.70
2022-09-23T09:30:26.468Z,3.80
2022-09-23T09:35:42.731Z,2.17
2022-09-23T09:40:48.618Z,1.83
2022-09-23T09:46:23.385Z,2.23
2022-09-23T09:51:29.014Z,2.00
2022-09-23T09:56:35.181Z,1.70
2022-09-23T10:01:38.881Z,2.10
2022-09-23T10:06:42.549Z,1.83
2022-09-23T10:12:05.112Z,2.53
2022-09-23T10:17:15.517Z,1.50
2022-09-23T10:22:33.130Z,1.57
2022-09-23T10:27:39.277Z,0.93
2022-09-23T10:32:46.187Z,1.50
2022-09-23T10:37:50.828Z,1.52
2022-09-23T10:43:37.121Z,1.43
2022-09-23T10:49:00.607Z,2.43
2022-09-23T10:54:29.007Z,3.70
2022-09-23T10:59:49.870Z,3.15
2022-09-23T11:05:12.182Z,0.68
2022-09-23T11:10:45.389Z,1.50
2022-09-23T11:16:05.150Z,1.50
2022-09-23T11:21:32.298Z,0.90
2022-09-23T11:27:00.335Z,1.23
2022-09-23T11:32:30.180Z,1.63
2022-09-23T11:37:42.501Z,2.47
2022-09-23T11:43:34.105Z,1.60
2022-09-23T11:48:37.164Z,1.30
2022-09-23T11:53:43.012Z,3.40
2022-09-23T11:59:06.998Z,2.80
2022-09-23T12:04:23.311Z,0.82
2022-09-23T12:09:57.709Z,0.80
2022-09-23T12:15:31.102Z,0.73
2022-09-23T12:21:32.763Z,0.93
2022-09-23T12:26:39.770Z,1.10
2022-09-23T12:31:46.754Z,1.07
2022-09-23T12:36:50.822Z,1.13
2022-09-23T12:42:15.122Z,0.70
2022-09-23T12:47:29.544Z,2.50
2022-09-23T12:52:36.164Z,0.70
2022-09-23T12:57:39.196Z,0.80
2022-09-23T13:03:08.694Z,1.77
2022-09-23T13:08:21.004Z,1.17
2022-09-23T13:13:41.021Z,0.53
2022-09-23T13:19:05.318Z,2.10
2022-09-23T13:24:31.685Z,0.40
2022-09-23T13:29:39.677Z,1.90
2022-09-23T13:34:44.841Z,3.30
2022-09-23T13:39:48.333Z,1.63
2022-09-23T13:44:58.093Z,1.70
2022-09-23T13:50:02.109Z,1.95
2022-09-23T13:55:06.534Z,4.50
2022-09-23T14:00:22.218Z,7.90
2022-09-23T14:05:27.807Z,2.25
2022-09-23T14:10:31.565Z,1.52
2022-09-23T14:15:38.232Z,0.60
2022-09-23T14:20:50.533Z,1.08
2022-09-23T14:25:55.912Z,1.33
2022-09-23T14:30:59.755Z,1.08
2022-09-23T14:36:09.305Z,0.80
2022-09-23T14:41:42.905Z,0.77
2022-09-23T14:46:56.843Z,1.58
2022-09-23T14:52:01.965Z,1.98
2022-09-23T14:57:23.820Z,1.85
2022-09-23T15:02:39.817Z,1.55
2022-09-23T15:07:56.639Z,1.13
2022-09-23T15:13:19.252Z,0.98
2022-09-23T15:18:37.596Z,1.98
2022-09-23T15:23:44.786Z,0.90
2022-09-23T15:28:49.320Z,0.83
2022-09-23T15:33:52.577Z,1.60
2022-09-23T15:38:57.812Z,0.70
2022-09-23T15:44:16.894Z,2.00
2022-09-23T15:49:39.423Z,2.33
2022-09-23T15:54:44.380Z,4.17
2022-09-23T15:59:47.554Z,3.67
2022-09-23T16:04:53.200Z,36.17
2022-09-23T16:09:59.193Z,57.60
2022-09-23T16:15:02.144Z,50.63
2022-09-23T16:20:06.086Z,18.33
2022-09-23T16:25:13.194Z,17.07
2022-09-23T16:30:16.361Z,23.67
2022-09-23T16:35:25.176Z,16.23
2022-09-23T16:40:29.332Z,11.97
2022-09-23T16:45:33.433Z,14.67
2022-09-23T16:50:36.913Z,17.53
2022-09-23T16:55:39.865Z,14.30
2022-09-23T17:01:01.710Z,14.33
2022-09-23T17:06:08.085Z,15.30
2022-09-23T17:11:15.185Z,37.07
2022-09-23T17:16:23.865Z,20.60
2022-09-23T17:21:28.436Z,16.83
2022-09-23T17:26:31.867Z,27.07
2022-09-23T17:31:35.165Z,23.70
2022-09-23T17:36:40.236Z,29.20
2022-09-23T17:41:43.927Z,59.40
2022-09-23T17:46:48.031Z,67.20
2022-09-23T17:51:51.709Z,50.73
2022-09-23T17:56:57.353Z,25.03
2022-09-23T18:02:00.504Z,20.90
2022-09-23T18:07:03.740Z,48.67
2022-09-23T18:12:07.740Z,60.50
2022-09-23T18:17:11.315Z,75.00
2022-09-23T18:22:16.889Z,46.73
2022-09-23T18:27:20.158Z,43.50
2022-09-23T18:32:23.428Z,38.97
2022-09-23T18:37:27.308Z,36.07
2022-09-23T18:42:31.477Z,52.40
2022-09-23T18:47:53.260Z,55.37
2022-09-23T18:52:59.610Z,43.77
2022-09-23T18:58:03.377Z,39.93
2022-09-23T19:03:16.578Z,34.43
2022-09-23T19:08:23.459Z,34.60
2022-09-23T19:13:26.673Z,40.03
2022-09-23T19:18:30.873Z,42.23
2022-09-23T19:23:37.740Z,46.63
2022-09-23T19:28:41.440Z,42.47
2022-09-23T19:33:50.287Z,34.73
2022-09-23T19:38:56.218Z,33.83
2022-09-23T19:44:03.033Z,34.77
2022-09-23T19:49:08.898Z,35.67
2022-09-23T19:54:21.199Z,40.70
2022-09-23T19:59:26.669Z,39.27
2022-09-23T20:04:30.559Z,35.53
2022-09-23T20:09:34.459Z,38.97
2022-09-23T20:14:39.641Z,47.57
2022-09-23T20:19:44.938Z,47.97
2022-09-23T20:24:48.517Z,52.33
2022-09-23T20:29:54.951Z,50.93
2022-09-23T20:34:58.519Z,57.17
2022-09-23T20:40:02.247Z,41.57
2022-09-23T20:45:07.867Z,46.50
2022-09-23T20:50:11.533Z,38.20
2022-09-23T20:55:14.958Z,52.13
2022-09-23T21:00:19.836Z,48.20
2022-09-23T21:05:24.328Z,48.80
2022-09-23T21:10:27.349Z,35.47
2022-09-23T21:15:33.035Z,37.03
2022-09-23T21:20:36.178Z,34.67
2022-09-23T21:25:40.397Z,36.40
2022-09-23T21:30:43.254Z,33.30
2022-09-23T21:35:46.408Z,27.77
2022-09-23T21:40:58.398Z,23.57
2022-09-23T21:46:06.428Z,23.53
2022-09-23T21:51:12.942Z,29.23
2022-09-23T21:56:27.640Z,26.17
2022-09-23T22:01:36.838Z,29.93
2022-09-23T22:06:41.111Z,30.93
2022-09-23T22:12:03.220Z,37.63
2022-09-23T22:17:08.657Z,42.13
2022-09-23T22:22:13.956Z,34.00
2022-09-23T22:27:19.866Z,40.00
2022-09-23T22:32:41.627Z,40.27
2022-09-23T22:37:46.160Z,47.60
2022-09-23T22:42:50.316Z,40.63
2022-09-23T22:47:53.577Z,55.63
2022-09-23T22:52:58.147Z,51.00
2022-09-23T22:58:15.567Z,52.57
2022-09-23T23:03:27.665Z,46.73
2022-09-23T23:08:32.107Z,53.07
2022-09-23T23:13:35.206Z,52.73
2022-09-23T23:18:41.228Z,44.80
2022-09-23T23:23:49.227Z,55.17
2022-09-23T23:28:53.937Z,48.50
2022-09-23T23:33:57.427Z,50.97
2022-09-23T23:39:00.697Z,34.93
2022-09-23T23:44:04.215Z,26.63
2022-09-23T23:49:07.847Z,31.63
2022-09-23T23:54:12.929Z,25.33
2022-09-23T23:59:16.238Z,21.43
